sensor_id;sensor_type;location;lat;lon;timestamp;pressure;altitude;pressure_sealevel;temperature;humidity
5753;BME280;2901;42.140;24.760;2023-04-23T00:00:39;99476.31;;;13.05;100.00
5753;BME280;2901;42.140;24.760;2023-04-23T00:03:07;99486.72;;;13.07;100.00
5753;BME280;2901;42.140;24.760;2023-04-23T00:05:35;99481.47;;;13.08;100.00
5753;BME280;2901;42.140;24.760;2023-04-23T00:08:01;99479.78;;;13.07;100.00
5753;BME280;2901;42.140;24.760;2023-04-23T00:10:27;99477.25;;;13.01;100.00
5753;BME280;2901;42.140;24.760;2023-04-23T00:12:53;99487.59;;;13.04;100.00
5753;BME280;2901;42.140;24.760;2023-04-23T00:15:18;99484.13;;;13.05;100.00
5753;BME280;2901;42.140;24.760;2023-04-23T00:17:46;99491.84;;;13.13;100.00
5753;BME280;2901;42.140;24.760;2023-04-23T00:20:12;99464.16;;;13.09;100.00
5753;BME280;2901;42.140;24.760;2023-04-23T00:22:38;99487.28;;;13.25;100.00
5753;BME280;2901;42.140;24.760;2023-04-23T00:25:04;99488.28;;;13.18;100.00
5753;BME280;2901;42.140;24.760;2023-04-23T00:27:29;99490.81;;;13.21;100.00
5753;BME280;2901;42.140;24.760;2023-04-23T00:29:54;99495.91;;;13.27;100.00
5753;BME280;2901;42.140;24.760;2023-04-23T00:32:20;99502.78;;;13.31;100.00
5753;BME280;2901;42.140;24.760;2023-04-23T00:34:46;99499.53;;;13.17;100.00
5753;BME280;2901;42.140;24.760;2023-04-23T00:37:13;99496.19;;;13.12;100.00
5753;BME280;2901;42.140;24.760;2023-04-23T00:39:39;99500.50;;;13.12;100.00
5753;BME280;2901;42.140;24.760;2023-04-23T00:42:05;99502.28;;;13.08;100.00
5753;BME280;2901;42.140;24.760;2023-04-23T00:44:36;99498.84;;;13.05;100.00
5753;BME280;2901;42.140;24.760;2023-04-23T00:47:02;99499.72;;;13.05;100.00
5753;BME280;2901;42.140;24.760;2023-04-23T00:49:28;99518.78;;;13.07;100.00
5753;BME280;2901;42.140;24.760;2023-04-23T00:51:55;99516.19;;;13.06;100.00
5753;BME280;2901;42.140;24.760;2023-04-23T00:54:20;99513.59;;;13.04;100.00
5753;BME280;2901;42.140;24.760;2023-04-23T00:56:47;99511.78;;;13.11;100.00
5753;BME280;2901;42.140;24.760;2023-04-23T00:59:12;99512.72;;;13.07;100.00
5753;BME280;2901;42.140;24.760;2023-04-23T01:01:38;99513.44;;;13.16;100.00
5753;BME280;2901;42.140;24.760;2023-04-23T01:04:05;99516.16;;;13.09;100.00
5753;BME280;2901;42.140;24.760;2023-04-23T01:06:30;99517.03;;;13.09;100.00
5753;BME280;2901;42.140;24.760;2023-04-23T01:08:56;99518.75;;;13.10;100.00
5753;BME280;2901;42.140;24.760;2023-04-23T01:11:21;99509.19;;;13.11;100.00
5753;BME280;2901;42.140;24.760;2023-04-23T01:13:47;99510.94;;;13.10;100.00
5753;BME280;2901;42.140;24.760;2023-04-23T01:16:12;99516.22;;;13.02;100.00
5753;BME280;2901;42.140;24.760;2023-04-23T01:18:37;99518.78;;;13.07;100.00
5753;BME280;2901;42.140;24.760;2023-04-23T01:21:05;99514.41;;;13.08;100.00
5753;BME280;2901;42.140;24.760;2023-04-23T01:23:31;99510.81;;;13.18;100.00
5753;BME280;2901;42.140;24.760;2023-04-23T01:25:57;99509.16;;;13.14;100.00
5753;BME280;2901;42.140;24.760;2023-04-23T01:28:23;99510.81;;;13.18;100.00
5753;BME280;2901;42.140;24.760;2023-04-23T01:30:49;99513.56;;;13.07;100.00
5753;BME280;2901;42.140;24.760;2023-04-23T01:33:15;99504.25;;;12.92;100.00
5753;BME280;2901;42.140;24.760;2023-04-23T01:35:42;99505.22;;;12.87;100.00
5753;BME280;2901;42.140;24.760;2023-04-23T01:38:09;99506.19;;;12.80;100.00
5753;BME280;2901;42.140;24.760;2023-04-23T01:40:36;99505.44;;;12.72;100.00
5753;BME280;2901;42.140;24.760;2023-04-23T01:43:02;99503.00;;;12.63;100.00
5753;BME280;2901;42.140;24.760;2023-04-23T01:45:29;99504.00;;;12.53;100.00
5753;BME280;2901;42.140;24.760;2023-04-23T01:47:54;99512.66;;;12.52;100.00
5753;BME280;2901;42.140;24.760;2023-04-23T01:50:20;99515.25;;;12.52;100.00
5753;BME280;2901;42.140;24.760;2023-04-23T01:52:48;99523.97;;;12.49;100.00
5753;BME280;2901;42.140;24.760;2023-04-23T01:55:14;99513.66;;;12.43;100.00
5753;BME280;2901;42.140;24.760;2023-04-23T01:57:39;99515.41;;;12.42;100.00
5753;BME280;2901;42.140;24.760;2023-04-23T02:00:07;99515.47;;;12.38;100.00
5753;BME280;2901;42.140;24.760;2023-04-23T02:02:35;99518.13;;;12.32;100.00
5753;BME280;2901;42.140;24.760;2023-04-23T02:05:01;99519.03;;;12.29;100.00
5753;BME280;2901;42.140;24.760;2023-04-23T02:07:33;99520.84;;;12.23;100.00
5753;BME280;2901;42.140;24.760;2023-04-23T02:09:59;99519.22;;;12.16;100.00
5753;BME280;2901;42.140;24.760;2023-04-23T02:12:24;99523.50;;;12.21;100.00
5753;BME280;2901;42.140;24.760;2023-04-23T02:14:51;99522.63;;;12.19;100.00
5753;BME280;2901;42.140;24.760;2023-04-23T02:17:19;99511.38;;;12.20;100.00
5753;BME280;2901;42.140;24.760;2023-04-23T02:19:45;99524.31;;;12.25;100.00
5753;BME280;2901;42.140;24.760;2023-04-23T02:22:11;99520.09;;;12.15;100.00
5753;BME280;2901;42.140;24.760;2023-04-23T02:24:36;99522.63;;;12.21;100.00
5753;BME280;2901;42.140;24.760;2023-04-23T02:27:03;99526.16;;;12.14;100.00
5753;BME280;2901;42.140;24.760;2023-04-23T02:29:28;99513.22;;;12.09;100.00
5753;BME280;2901;42.140;24.760;2023-04-23T02:31:54;99520.09;;;12.15;100.00
5753;BME280;2901;42.140;24.760;2023-04-23T02:34:19;99522.66;;;12.16;100.00
5753;BME280;2901;42.140;24.760;2023-04-23T02:36:45;99509.69;;;12.16;100.00
5753;BME280;2901;42.140;24.760;2023-04-23T02:39:10;99513.16;;;12.15;100.00
5753;BME280;2901;42.140;24.760;2023-04-23T02:41:36;99516.66;;;12.14;100.00
5753;BME280;2901;42.140;24.760;2023-04-23T02:44:01;99520.94;;;12.15;100.00
5753;BME280;2901;42.140;24.760;2023-04-23T02:46:27;99525.25;;;12.16;100.00
5753;BME280;2901;42.140;24.760;2023-04-23T02:48:52;99519.28;;;12.10;100.00
5753;BME280;2901;42.140;24.760;2023-04-23T02:51:17;99527.97;;;12.06;100.00
5753;BME280;2901;42.140;24.760;2023-04-23T02:53:43;99527.19;;;11.99;100.00
5753;BME280;2901;42.140;24.760;2023-04-23T02:56:08;99523.78;;;11.99;100.00
5753;BME280;2901;42.140;24.760;2023-04-23T02:58:34;99530.69;;;11.98;100.00
5753;BME280;2901;42.140;24.760;2023-04-23T03:01:00;99527.13;;;12.08;100.00
5753;BME280;2901;42.140;24.760;2023-04-23T03:03:27;99530.66;;;12.01;100.00
5753;BME280;2901;42.140;24.760;2023-04-23T03:05:56;99527.22;;;11.98;100.00
5753;BME280;2901;42.140;24.760;2023-04-23T03:08:21;99537.88;;;11.73;100.00
5753;BME280;2901;42.140;24.760;2023-04-23T03:10:47;99541.34;;;11.75;100.00
5753;BME280;2901;42.140;24.760;2023-04-23T03:13:12;99535.38;;;11.61;100.00
5753;BME280;2901;42.140;24.760;2023-04-23T03:15:38;99544.88;;;11.62;100.00
5753;BME280;2901;42.140;24.760;2023-04-23T03:18:03;99543.19;;;11.57;100.00
5753;BME280;2901;42.140;24.760;2023-04-23T03:20:30;99551.03;;;11.51;100.00
5753;BME280;2901;42.140;24.760;2023-04-23T03:22:56;99555.38;;;11.49;100.00
5753;BME280;2901;42.140;24.760;2023-04-23T03:25:22;99558.84;;;11.49;100.00
5753;BME280;2901;42.140;24.760;2023-04-23T03:27:49;99558.84;;;11.48;100.00
5753;BME280;2901;42.140;24.760;2023-04-23T03:30:14;99563.94;;;11.57;100.00
5753;BME280;2901;42.140;24.760;2023-04-23T03:32:40;99557.88;;;11.56;100.00
5753;BME280;2901;42.140;24.760;2023-04-23T03:35:05;99563.97;;;11.54;100.00
5753;BME280;2901;42.140;24.760;2023-04-23T03:37:31;99557.16;;;11.43;100.00
5753;BME280;2901;42.140;24.760;2023-04-23T03:39:56;99560.59;;;11.44;100.00
5753;BME280;2901;42.140;24.760;2023-04-23T03:42:21;99564.09;;;11.41;100.00
5753;BME280;2901;42.140;24.760;2023-04-23T03:44:47;99558.09;;;11.33;100.00
5753;BME280;2901;42.140;24.760;2023-04-23T03:47:12;99575.38;;;11.36;100.00
5753;BME280;2901;42.140;24.760;2023-04-23T03:49:38;99565.94;;;11.27;100.00
5753;BME280;2901;42.140;24.760;2023-04-23T03:52:04;99566.88;;;11.17;100.00
5753;BME280;2901;42.140;24.760;2023-04-23T03:54:29;99564.34;;;11.11;100.00
5753;BME280;2901;42.140;24.760;2023-04-23T03:56:55;99565.25;;;11.04;100.00
5753;BME280;2901;42.140;24.760;2023-04-23T03:59:21;99558.41;;;10.99;100.00
5753;BME280;2901;42.140;24.760;2023-04-23T04:01:47;99571.34;;;10.97;100.00
5753;BME280;2901;42.140;24.760;2023-04-23T04:04:13;99572.25;;;10.90;100.00
5753;BME280;2901;42.140;24.760;2023-04-23T04:06:39;99574.84;;;10.91;100.00
5753;BME280;2901;42.140;24.760;2023-04-23T04:09:04;99578.22;;;11.04;100.00
5753;BME280;2901;42.140;24.760;2023-04-23T04:11:32;99579.03;;;11.11;100.00
5753;BME280;2901;42.140;24.760;2023-04-23T04:13:57;99576.34;;;11.26;100.00
5753;BME280;2901;42.140;24.760;2023-04-23T04:16:22;99585.69;;;11.42;100.00
5753;BME280;2901;42.140;24.760;2023-04-23T04:18:48;99577.91;;;11.45;100.00
5753;BME280;2901;42.140;24.760;2023-04-23T04:21:13;99571.84;;;11.44;100.00
5753;BME280;2901;42.140;24.760;2023-04-23T04:23:40;99594.97;;;11.70;100.00
5753;BME280;2901;42.140;24.760;2023-04-23T04:26:05;99599.19;;;11.79;100.00
5753;BME280;2901;42.140;24.760;2023-04-23T04:28:32;99593.03;;;11.89;100.00
5753;BME280;2901;42.140;24.760;2023-04-23T04:31:01;99593.81;;;12.02;100.00
5753;BME280;2901;42.140;24.760;2023-04-23T04:33:26;99594.56;;;12.11;100.00
5753;BME280;2901;42.140;24.760;2023-04-23T04:35:53;99604.72;;;12.29;100.00
5753;BME280;2901;42.140;24.760;2023-04-23T04:38:19;99604.69;;;12.32;100.00
5753;BME280;2901;42.140;24.760;2023-04-23T04:40:45;99610.56;;;12.46;100.00
5753;BME280;2901;42.140;24.760;2023-04-23T04:43:13;99601.75;;;12.61;100.00
5753;BME280;2901;42.140;24.760;2023-04-23T04:45:41;99607.50;;;12.81;100.00
5753;BME280;2901;42.140;24.760;2023-04-23T04:48:06;99600.56;;;12.82;100.00
5753;BME280;2901;42.140;24.760;2023-04-23T04:50:32;99608.13;;;12.98;100.00
5753;BME280;2901;42.140;24.760;2023-04-23T04:52:57;99618.56;;;12.95;100.00
5753;BME280;2901;42.140;24.760;2023-04-23T04:55:22;99617.56;;;13.07;100.00
5753;BME280;2901;42.140;24.760;2023-04-23T04:57:48;99620.97;;;13.11;99.89
5753;BME280;2901;42.140;24.760;2023-04-23T05:00:21;99613.13;;;13.17;99.26
5753;BME280;2901;42.140;24.760;2023-04-23T05:02:48;99631.09;;;13.30;98.09
5753;BME280;2901;42.140;24.760;2023-04-23T05:05:14;99632.81;;;13.31;97.72
5753;BME280;2901;42.140;24.760;2023-04-23T05:07:39;99631.00;;;13.36;97.43
5753;BME280;2901;42.140;24.760;2023-04-23T05:10:05;99628.38;;;13.38;97.54
5753;BME280;2901;42.140;24.760;2023-04-23T05:12:30;99625.72;;;13.41;97.35
5753;BME280;2901;42.140;24.760;2023-04-23T05:14:56;99627.50;;;13.39;96.52
5753;BME280;2901;42.140;24.760;2023-04-23T05:17:21;99635.28;;;13.39;97.84
5753;BME280;2901;42.140;24.760;2023-04-23T05:19:46;99636.00;;;13.47;97.77
5753;BME280;2901;42.140;24.760;2023-04-23T05:22:12;99642.50;;;13.74;96.52
5753;BME280;2901;42.140;24.760;2023-04-23T05:24:37;99641.28;;;13.94;95.44
5753;BME280;2901;42.140;24.760;2023-04-23T05:27:02;99640.78;;;14.22;93.47
5753;BME280;2901;42.140;24.760;2023-04-23T05:29:28;99639.50;;;14.45;91.89
5753;BME280;2901;42.140;24.760;2023-04-23T05:31:53;99648.53;;;14.69;90.00
5753;BME280;2901;42.140;24.760;2023-04-23T05:34:19;99644.84;;;14.79;89.03
5753;BME280;2901;42.140;24.760;2023-04-23T05:36:44;99642.75;;;14.96;88.41
5753;BME280;2901;42.140;24.760;2023-04-23T05:39:09;99639.56;;;15.22;87.38
5753;BME280;2901;42.140;24.760;2023-04-23T05:41:35;99639.00;;;15.45;86.36
5753;BME280;2901;42.140;24.760;2023-04-23T05:44:00;99649.63;;;15.74;85.76
5753;BME280;2901;42.140;24.760;2023-04-23T05:46:26;99649.22;;;15.91;84.69
5753;BME280;2901;42.140;24.760;2023-04-23T05:48:51;99647.69;;;16.16;83.20
5753;BME280;2901;42.140;24.760;2023-04-23T05:51:18;99642.09;;;16.30;81.34
5753;BME280;2901;42.140;24.760;2023-04-23T05:53:44;99644.63;;;16.33;80.46
5753;BME280;2901;42.140;24.760;2023-04-23T05:56:09;99649.19;;;16.25;80.93
5753;BME280;2901;42.140;24.760;2023-04-23T05:58:35;99642.91;;;15.99;80.69
5753;BME280;2901;42.140;24.760;2023-04-23T06:01:00;99663.88;;;15.96;81.04
5753;BME280;2901;42.140;24.760;2023-04-23T06:03:27;99653.19;;;16.05;81.04
5753;BME280;2901;42.140;24.760;2023-04-23T06:05:52;99664.06;;;16.23;80.78
5753;BME280;2901;42.140;24.760;2023-04-23T06:08:17;99650.56;;;16.38;79.81
5753;BME280;2901;42.140;24.760;2023-04-23T06:10:44;99666.28;;;16.69;77.80
5753;BME280;2901;42.140;24.760;2023-04-23T06:13:10;99658.19;;;16.78;76.59
5753;BME280;2901;42.140;24.760;2023-04-23T06:15:35;99656.03;;;16.63;78.00
5753;BME280;2901;42.140;24.760;2023-04-23T06:18:01;99652.56;;;16.60;78.77
5753;BME280;2901;42.140;24.760;2023-04-23T06:20:26;99656.94;;;16.60;78.51
5753;BME280;2901;42.140;24.760;2023-04-23T06:22:51;99655.16;;;16.62;79.20
5753;BME280;2901;42.140;24.760;2023-04-23T06:25:17;99657.59;;;16.68;78.45
5753;BME280;2901;42.140;24.760;2023-04-23T06:27:42;99653.66;;;16.83;79.11
5753;BME280;2901;42.140;24.760;2023-04-23T06:30:08;99655.06;;;16.94;77.12
5753;BME280;2901;42.140;24.760;2023-04-23T06:32:33;99654.84;;;16.73;77.78
5753;BME280;2901;42.140;24.760;2023-04-23T06:34:59;99659.41;;;16.66;78.03
5753;BME280;2901;42.140;24.760;2023-04-23T06:37:24;99660.38;;;16.62;78.01
5753;BME280;2901;42.140;24.760;2023-04-23T06:39:50;99660.47;;;16.59;79.25
5753;BME280;2901;42.140;24.760;2023-04-23T06:42:15;99651.91;;;16.83;78.30
5753;BME280;2901;42.140;24.760;2023-04-23T06:44:42;99643.13;;;16.86;77.88
5753;BME280;2901;42.140;24.760;2023-04-23T06:47:07;99646.44;;;16.92;77.15
5753;BME280;2901;42.140;24.760;2023-04-23T06:49:33;99660.69;;;17.10;77.41
5753;BME280;2901;42.140;24.760;2023-04-23T06:51:58;99647.66;;;17.36;76.88
5753;BME280;2901;42.140;24.760;2023-04-23T06:54:23;99656.28;;;17.68;75.07
5753;BME280;2901;42.140;24.760;2023-04-23T06:56:49;99652.16;;;17.87;74.48
5753;BME280;2901;42.140;24.760;2023-04-23T06:59:15;99656.38;;;18.15;73.00
5753;BME280;2901;42.140;24.760;2023-04-23T07:01:41;99654.16;;;18.54;71.69
5753;BME280;2901;42.140;24.760;2023-04-23T07:04:06;99648.59;;;18.63;70.58
5753;BME280;2901;42.140;24.760;2023-04-23T07:06:32;99644.91;;;18.91;68.96
5753;BME280;2901;42.140;24.760;2023-04-23T07:08:59;99647.13;;;19.01;67.66
5753;BME280;2901;42.140;24.760;2023-04-23T07:11:24;99644.66;;;19.20;67.39
5753;BME280;2901;42.140;24.760;2023-04-23T07:13:50;99649.28;;;19.13;66.64
5753;BME280;2901;42.140;24.760;2023-04-23T07:16:15;99642.28;;;18.91;67.68
5753;BME280;2901;42.140;24.760;2023-04-23T07:18:41;99642.81;;;18.77;68.02
5753;BME280;2901;42.140;24.760;2023-04-23T07:21:06;99643.53;;;18.57;69.06
5753;BME280;2901;42.140;24.760;2023-04-23T07:23:31;99639.53;;;18.47;69.29
5753;BME280;2901;42.140;24.760;2023-04-23T07:25:57;99639.34;;;18.04;70.94
5753;BME280;2901;42.140;24.760;2023-04-23T07:28:22;99647.00;;;17.84;72.26
5753;BME280;2901;42.140;24.760;2023-04-23T07:30:47;99641.94;;;17.51;73.81
5753;BME280;2901;42.140;24.760;2023-04-23T07:33:13;99638.38;;;17.26;75.48
5753;BME280;2901;42.140;24.760;2023-04-23T07:35:38;99633.81;;;17.05;76.68
5753;BME280;2901;42.140;24.760;2023-04-23T07:38:04;99624.00;;;16.84;77.09
5753;BME280;2901;42.140;24.760;2023-04-23T07:40:30;99632.69;;;16.86;77.78
5753;BME280;2901;42.140;24.760;2023-04-23T07:42:56;99639.41;;;16.64;78.74
5753;BME280;2901;42.140;24.760;2023-04-23T07:45:23;99638.59;;;16.62;79.13
5753;BME280;2901;42.140;24.760;2023-04-23T07:47:49;99632.22;;;16.72;79.59
5753;BME280;2901;42.140;24.760;2023-04-23T07:50:14;99624.28;;;16.75;79.54
5753;BME280;2901;42.140;24.760;2023-04-23T07:52:40;99626.16;;;16.99;79.50
5753;BME280;2901;42.140;24.760;2023-04-23T07:55:06;99621.13;;;17.21;78.96
5753;BME280;2901;42.140;24.760;2023-04-23T07:57:31;99615.03;;;17.20;78.58
5753;BME280;2901;42.140;24.760;2023-04-23T07:59:57;99618.47;;;17.22;78.17
5753;BME280;2901;42.140;24.760;2023-04-23T08:02:23;99620.84;;;17.02;79.33
5753;BME280;2901;42.140;24.760;2023-04-23T08:04:51;99622.88;;;17.20;78.99
5753;BME280;2901;42.140;24.760;2023-04-23T08:07:17;99625.63;;;17.43;77.70
5753;BME280;2901;42.140;24.760;2023-04-23T08:09:42;99616.03;;;17.42;77.53
5753;BME280;2901;42.140;24.760;2023-04-23T08:12:07;99618.06;;;17.34;77.02
5753;BME280;2901;42.140;24.760;2023-04-23T08:14:33;99614.03;;;17.24;77.24
5753;BME280;2901;42.140;24.760;2023-04-23T08:16:58;99621.69;;;17.30;78.01
5753;BME280;2901;42.140;24.760;2023-04-23T08:19:23;99609.69;;;17.23;76.77
5753;BME280;2901;42.140;24.760;2023-04-23T08:21:49;99617.31;;;17.03;76.67
5753;BME280;2901;42.140;24.760;2023-04-23T08:24:16;99615.16;;;16.88;76.99
5753;BME280;2901;42.140;24.760;2023-04-23T08:26:41;99612.53;;;16.88;77.88
5753;BME280;2901;42.140;24.760;2023-04-23T08:29:07;99609.50;;;17.01;77.48
5753;BME280;2901;42.140;24.760;2023-04-23T08:31:32;99613.75;;;17.05;77.46
5753;BME280;2901;42.140;24.760;2023-04-23T08:33:58;99608.38;;;17.10;77.78
5753;BME280;2901;42.140;24.760;2023-04-23T08:36:23;99611.94;;;17.07;77.45
5753;BME280;2901;42.140;24.760;2023-04-23T08:38:50;99609.50;;;17.29;75.84
5753;BME280;2901;42.140;24.760;2023-04-23T08:41:17;99604.81;;;17.67;75.37
5753;BME280;2901;42.140;24.760;2023-04-23T08:46:17;99616.53;;;18.06;65.05
5753;BME280;2901;42.140;24.760;2023-04-23T08:48:44;99608.94;;;18.23;64.32
5753;BME280;2901;42.140;24.760;2023-04-23T08:51:12;99597.97;;;18.37;63.00
5753;BME280;2901;42.140;24.760;2023-04-23T08:53:38;99599.16;;;18.53;61.11
5753;BME280;2901;42.140;24.760;2023-04-23T08:56:07;99600.13;;;18.49;60.53
5753;BME280;2901;42.140;24.760;2023-04-23T08:58:33;99589.41;;;18.56;60.24
5753;BME280;2901;42.140;24.760;2023-04-23T09:00:59;99605.00;;;18.83;60.08
5753;BME280;2901;42.140;24.760;2023-04-23T09:03:25;99586.84;;;19.00;58.43
5753;BME280;2901;42.140;24.760;2023-04-23T09:05:50;99584.44;;;18.94;57.67
5753;BME280;2901;42.140;24.760;2023-04-23T09:08:20;99576.69;;;18.44;58.09
5753;BME280;2901;42.140;24.760;2023-04-23T09:10:45;99592.59;;;18.17;59.03
5753;BME280;2901;42.140;24.760;2023-04-23T09:13:12;99583.53;;;18.25;60.02
5753;BME280;2901;42.140;24.760;2023-04-23T09:15:39;99585.91;;;18.31;59.51
5753;BME280;2901;42.140;24.760;2023-04-23T09:18:07;99583.28;;;18.31;58.25
5753;BME280;2901;42.140;24.760;2023-04-23T09:20:33;99576.69;;;18.44;58.78
5753;BME280;2901;42.140;24.760;2023-04-23T09:22:59;99575.91;;;18.42;58.92
5753;BME280;2901;42.140;24.760;2023-04-23T09:25:24;99562.47;;;18.51;58.75
5753;BME280;2901;42.140;24.760;2023-04-23T09:27:51;99572.81;;;18.78;56.81
5753;BME280;2901;42.140;24.760;2023-04-23T09:30:17;99575.72;;;18.93;56.27
5753;BME280;2901;42.140;24.760;2023-04-23T09:32:44;99571.47;;;19.12;56.42
5753;BME280;2901;42.140;24.760;2023-04-23T09:35:16;99566.63;;;19.24;57.15
5753;BME280;2901;42.140;24.760;2023-04-23T09:37:46;99565.28;;;19.35;56.83
5753;BME280;2901;42.140;24.760;2023-04-23T09:40:17;99575.44;;;19.44;56.00
5753;BME280;2901;42.140;24.760;2023-04-23T09:42:51;99565.00;;;19.63;55.27
5753;BME280;2901;42.140;24.760;2023-04-23T09:45:20;99560.16;;;19.74;54.51
5753;BME280;2901;42.140;24.760;2023-04-23T09:47:53;99560.41;;;19.88;53.34
5753;BME280;2901;42.140;24.760;2023-04-23T09:52:55;99543.44;;;19.33;52.80
5753;BME280;2901;42.140;24.760;2023-04-23T09:55:31;99551.47;;;19.30;52.76
5753;BME280;2901;42.140;24.760;2023-04-23T09:58:01;99554.16;;;19.29;52.35
5753;BME280;2901;42.140;24.760;2023-04-23T10:00:32;99550.88;;;19.45;52.85
5753;BME280;2901;42.140;24.760;2023-04-23T10:02:58;99546.25;;;19.72;51.96
5753;BME280;2901;42.140;24.760;2023-04-23T10:05:23;99541.94;;;19.90;51.65
5753;BME280;2901;42.140;24.760;2023-04-23T10:07:49;99545.25;;;19.95;51.06
5753;BME280;2901;42.140;24.760;2023-04-23T10:10:15;99531.28;;;19.93;51.35
5753;BME280;2901;42.140;24.760;2023-04-23T10:12:42;99521.88;;;20.07;51.37
5753;BME280;2901;42.140;24.760;2023-04-23T10:15:08;99525.59;;;20.22;51.56
5753;BME280;2901;42.140;24.760;2023-04-23T10:17:35;99510.50;;;20.46;50.67
5753;BME280;2901;42.140;24.760;2023-04-23T10:20:01;99505.59;;;20.57;49.78
5753;BME280;2901;42.140;24.760;2023-04-23T10:22:30;99513.84;;;20.31;48.69
5753;BME280;2901;42.140;24.760;2023-04-23T10:24:56;99510.75;;;20.21;48.59
5753;BME280;2901;42.140;24.760;2023-04-23T10:27:27;99510.03;;;20.17;50.01
5753;BME280;2901;42.140;24.760;2023-04-23T10:29:53;99501.69;;;20.28;49.35
5753;BME280;2901;42.140;24.760;2023-04-23T10:32:19;99496.50;;;20.27;49.75
5753;BME280;2901;42.140;24.760;2023-04-23T10:34:46;99490.47;;;20.43;49.95
5753;BME280;2901;42.140;24.760;2023-04-23T10:37:13;99491.53;;;20.58;49.52
5753;BME280;2901;42.140;24.760;2023-04-23T10:39:42;99487.03;;;20.60;48.87
5753;BME280;2901;42.140;24.760;2023-04-23T10:42:09;99487.31;;;20.54;49.06
5753;BME280;2901;42.140;24.760;2023-04-23T10:44:40;99478.59;;;20.35;49.61
5753;BME280;2901;42.140;24.760;2023-04-23T10:47:14;99478.13;;;20.25;49.54
5753;BME280;2901;42.140;24.760;2023-04-23T10:49:40;99476.78;;;20.35;49.52
5753;BME280;2901;42.140;24.760;2023-04-23T10:52:12;99489.63;;;20.04;50.61
5753;BME280;2901;42.140;24.760;2023-04-23T10:54:40;99467.97;;;19.99;50.80
5753;BME280;2901;42.140;24.760;2023-04-23T10:57:07;99463.34;;;20.04;50.38
5753;BME280;2901;42.140;24.760;2023-04-23T10:59:35;99460.41;;;20.10;51.01
5753;BME280;2901;42.140;24.760;2023-04-23T11:02:10;99450.00;;;20.08;50.90
5753;BME280;2901;42.140;24.760;2023-04-23T11:04:41;99455.81;;;20.15;51.12
5753;BME280;2901;42.140;24.760;2023-04-23T11:07:10;99445.31;;;20.15;51.95
5753;BME280;2901;42.140;24.760;2023-04-23T11:09:45;99442.03;;;20.29;52.76
5753;BME280;2901;42.140;24.760;2023-04-23T11:12:29;99444.97;;;20.41;50.18
5753;BME280;2901;42.140;24.760;2023-04-23T11:14:55;99439.97;;;20.54;49.48
5753;BME280;2901;42.140;24.760;2023-04-23T11:20:18;99442.91;;;20.84;50.17
5753;BME280;2901;42.140;24.760;2023-04-23T11:22:45;99438.09;;;20.92;48.26
5753;BME280;2901;42.140;24.760;2023-04-23T11:25:13;99439.00;;;21.09;46.92
5753;BME280;2901;42.140;24.760;2023-04-23T11:27:41;99435.44;;;21.10;46.58
5753;BME280;2901;42.140;24.760;2023-04-23T11:30:28;99430.63;;;21.36;46.58
5753;BME280;2901;42.140;24.760;2023-04-23T11:32:55;99428.66;;;21.56;45.83
5753;BME280;2901;42.140;24.760;2023-04-23T11:35:23;99429.38;;;21.60;45.75
5753;BME280;2901;42.140;24.760;2023-04-23T11:37:53;99427.28;;;21.32;45.43
5753;BME280;2901;42.140;24.760;2023-04-23T11:40:18;99434.19;;;21.17;44.93
5753;BME280;2901;42.140;24.760;2023-04-23T11:42:49;99422.78;;;21.00;45.81
5753;BME280;2901;42.140;24.760;2023-04-23T11:47:48;99432.34;;;20.66;45.70
5753;BME280;2901;42.140;24.760;2023-04-23T11:50:22;99417.03;;;20.75;44.97
5753;BME280;2901;42.140;24.760;2023-04-23T11:52:49;99412.94;;;20.86;44.84
5753;BME280;2901;42.140;24.760;2023-04-23T11:55:15;99408.28;;;21.08;44.01
5753;BME280;2901;42.140;24.760;2023-04-23T11:57:45;99407.41;;;21.09;43.50
5753;BME280;2901;42.140;24.760;2023-04-23T12:03:00;99390.38;;;21.82;43.74
5753;BME280;2901;42.140;24.760;2023-04-23T12:05:32;99398.09;;;22.02;42.91
5753;BME280;2901;42.140;24.760;2023-04-23T12:08:13;99391.13;;;21.84;41.36
5753;BME280;2901;42.140;24.760;2023-04-23T12:15:55;99383.53;;;22.11;41.34
5753;BME280;2901;42.140;24.760;2023-04-23T12:18:31;99381.50;;;22.32;39.58
5753;BME280;2901;42.140;24.760;2023-04-23T12:21:07;99384.56;;;22.55;39.26
5753;BME280;2901;42.140;24.760;2023-04-23T12:23:34;99368.50;;;22.29;38.32
5753;BME280;2901;42.140;24.760;2023-04-23T12:26:01;99369.25;;;22.31;38.27
5753;BME280;2901;42.140;24.760;2023-04-23T12:28:29;99354.25;;;22.31;38.56
5753;BME280;2901;42.140;24.760;2023-04-23T12:30:59;99366.06;;;22.40;38.30
5753;BME280;2901;42.140;24.760;2023-04-23T12:33:29;99360.56;;;22.29;37.53
5753;BME280;2901;42.140;24.760;2023-04-23T12:35:55;99351.03;;;22.42;37.17
5753;BME280;2901;42.140;24.760;2023-04-23T12:38:22;99345.94;;;21.92;37.41
5753;BME280;2901;42.140;24.760;2023-04-23T12:40:58;99353.09;;;21.90;37.55
5753;BME280;2901;42.140;24.760;2023-04-23T12:43:24;99339.28;;;22.00;37.42
5753;BME280;2901;42.140;24.760;2023-04-23T12:45:51;99342.78;;;22.01;36.84
5753;BME280;2901;42.140;24.760;2023-04-23T12:48:17;99340.06;;;22.02;37.35
5753;BME280;2901;42.140;24.760;2023-04-23T12:50:44;99346.78;;;22.08;38.44
5753;BME280;2901;42.140;24.760;2023-04-23T12:53:10;99334.13;;;21.99;37.44
5753;BME280;2901;42.140;24.760;2023-04-23T12:55:35;99340.31;;;22.13;37.76
5753;BME280;2901;42.140;24.760;2023-04-23T12:58:03;99339.63;;;22.41;37.22
5753;BME280;2901;42.140;24.760;2023-04-23T13:00:28;99335.06;;;22.59;36.01
5753;BME280;2901;42.140;24.760;2023-04-23T13:02:54;99329.25;;;22.22;35.91
5753;BME280;2901;42.140;24.760;2023-04-23T13:05:20;99327.88;;;22.00;36.71
5753;BME280;2901;42.140;24.760;2023-04-23T13:07:45;99333.34;;;21.97;36.40
5753;BME280;2901;42.140;24.760;2023-04-23T13:10:11;99332.31;;;22.15;35.90
5753;BME280;2901;42.140;24.760;2023-04-23T13:12:36;99330.16;;;22.37;35.63
5753;BME280;2901;42.140;24.760;2023-04-23T13:15:02;99323.75;;;22.57;34.17
5753;BME280;2901;42.140;24.760;2023-04-23T13:17:27;99322.34;;;22.81;33.91
5753;BME280;2901;42.140;24.760;2023-04-23T13:19:53;99320.31;;;23.00;34.48
5753;BME280;2901;42.140;24.760;2023-04-23T13:22:20;99328.16;;;23.16;34.33